Bei Facebook empfehlenBei Twitter postenGoogle plusPinterest

Das Wetter im Erzgebirge am 01.10.2015

Wetter und Klima am 01.10.2015 Holzhau im Erzgebirge (630m ü.NN)
Letzte gemessene Temperatur und Uhrzeit der Messung23:45:00 Uhr0.50 °C
Temperatur (Maximum / Höchstwert) und Uhrzeit der Messung16:00:00 Uhr14.10 °C
Temperatur (Minimum / Tiefstwert) und Uhrzeit der Messung07:15:00-3.20 °C
Errechneter Absolutwert der Temperaturschwankungen zwischen Tmin und Tmax des Tages17.30 K
Errechnete Tagesmitteltemperatur4.46250 °C
Gesamt - Niederschlag des Tages (in flüssiger Form)0.00 Liter / m²
Luftdruck (Maximum / Höchstwert) und Zeitpunkt der Messung00:00:00 Uhr1029.40 hPa
Luftdruck (Minimum / Tiefstwert) und Zeitpunkt der Messung23:45:00 Uhr1026.10 hPa
Errechneter Absolutwert der Luftdruckschwankungen des Tages3.30 hPa
Höchste gemessene Windgeschwindigkeit und Uhrzeit der Messung11:45:00 Uhr16.56 km/h
Errechnete Windhäufigkeit in Relation zu den Messwerten des Tages8.33333 %
Niedrigste Windkühle (Windchill) und Zeitpunkt der Messung07:15:00 Uhr-3.20 °C
Taupunkt (Maximum / Höchstwert) und Uhrzeit der Messung11:00:00 Uhr7.10 °C
Taupunkt (Minimum / Tiefstwert) und Uhrzeit der Messung07:00:00-4.70 °C
Anzahl der automatisch eingelesenen Messwerte 96

Detaillierte Wetter- und Klima- Messwerte für den 01.10.2015 in Holzhau im Erzgebirge (630m ü.NN)
ZeitTemperaturLuftdruckRel. LuftfeuchteWindWindrichtungWindchillTaupunktNiederschlag l/m²
23:45:000.50 °C1026.10 hPa86.00 %-1.60 °C 
23:30:000.50 °C1026.20 hPa86.00 %-1.60 °C 
23:15:000.80 °C1026.50 hPa85.00 %-1.40 °C 
23:00:000.60 °C1026.80 hPa85.00 %-1.60 °C 
22:45:000.50 °C1026.80 hPa85.00 %-1.70 °C 
22:30:000.50 °C1026.80 hPa83.00 %-2.00 °C 
22:15:000.80 °C1026.80 hPa83.00 %-1.80 °C 
22:00:001.30 °C1026.70 hPa83.00 %-1.30 °C 
21:45:001.50 °C1026.50 hPa83.00 %-1.10 °C 
21:30:001.50 °C1026.50 hPa81.00 %-1.40 °C 
21:15:001.60 °C1026.60 hPa80.00 %-1.50 °C 
21:00:001.80 °C1026.50 hPa79.00 %-1.40 °C 
20:45:002.20 °C1026.70 hPa78.00 %-1.20 °C 
20:30:002.80 °C1026.50 hPa78.00 %-0.60 °C 
20:15:003.10 °C1026.10 hPa77.00 %-0.50 °C 
20:00:003.40 °C1026.10 hPa75.00 %-0.60 °C 
19:45:004.10 °C1026.10 hPa73.00 %-0.30 °C 
19:30:004.60 °C1026.10 hPa71.00 %-0.20 °C 
19:15:005.60 °C1026.10 hPa69.00 %0.40 °C 
19:00:007.00 °C1026.10 hPa67.00 %1.30 °C 
18:45:008.50 °C1026.10 hPa63.00 %1.90 °C 
18:30:0010.20 °C1026.20 hPa61.00 %3.00 °C 
18:15:0012.00 °C1026.20 hPa57.00 %3.80 °C 
18:00:0012.60 °C1026.20 hPa55.00 %3.80 °C 
17:45:0013.20 °C1026.40 hPa55.00 %4.40 °C 
17:30:0013.40 °C1026.30 hPa54.00 %4.30 °C 
17:15:0013.60 °C1026.40 hPa54.00 %4.50 °C 
17:00:0013.80 °C1026.50 hPa54.00 %4.70 °C 
16:45:0013.80 °C1026.70 hPa54.00 %4.70 °C 
16:30:0013.90 °C1026.70 hPa53.00 %4.50 °C 
16:15:0013.90 °C1026.90 hPa53.00 %4.50 °C 
16:00:0014.10 °C1027.00 hPa53.00 %4.70 °C 
15:45:0014.10 °C1027.00 hPa54.00 %1.44 km/hSO14.10 °C4.90 °C 
15:30:0013.90 °C1027.10 hPa54.00 %4.80 °C 
15:15:0013.90 °C1027.40 hPa54.00 %4.80 °C 
15:00:0014.10 °C1027.40 hPa55.00 %7.92 km/hSO13.80 °C5.20 °C 
14:45:0014.10 °C1027.40 hPa56.00 %5.50 °C 
14:30:0013.90 °C1027.50 hPa57.00 %5.50 °C 
14:15:0013.40 °C1027.60 hPa58.00 %5.30 °C 
14:00:0013.60 °C1027.70 hPa59.00 %5.70 °C 
13:45:0013.20 °C1027.70 hPa60.00 %5.60 °C 
13:30:0012.70 °C1027.90 hPa61.00 %5.40 °C 
13:15:0012.60 °C1027.90 hPa62.00 %5.50 °C 
13:00:0012.50 °C1027.90 hPa63.00 %5.70 °C 
12:45:0011.80 °C1028.00 hPa64.00 %5.20 °C 
12:30:0011.40 °C1027.90 hPa65.00 %5.10 °C 
12:15:0011.40 °C1027.60 hPa67.00 %5.50 °C 
12:00:0011.30 °C1027.60 hPa69.00 %5.80 °C 
11:45:0010.90 °C1027.30 hPa72.00 %16.56 km/hSSO8.90 °C6.10 °C 
11:30:0010.70 °C1027.20 hPa75.00 %6.12 km/hSO10.20 °C6.50 °C 
11:15:0010.20 °C1026.90 hPa79.00 %2.16 km/hOSO10.20 °C6.70 °C 
11:00:009.80 °C1026.80 hPa83.00 %7.10 °C 
10:45:009.30 °C1027.00 hPa86.00 %7.20 km/hOSO8.40 °C7.10 °C 
10:30:008.50 °C1027.50 hPa88.00 %14.76 km/hSO6.10 °C6.60 °C 
10:15:007.80 °C1027.50 hPa91.00 %6.40 °C 
10:00:006.90 °C1027.40 hPa92.00 %1.44 km/hSSO6.90 °C5.70 °C 
09:45:005.80 °C1027.40 hPa93.00 %4.80 °C 
09:30:004.30 °C1027.30 hPa93.00 %3.30 °C 
09:15:002.20 °C1027.30 hPa93.00 %1.20 °C 
09:00:000.40 °C1026.90 hPa92.00 %-0.70 °C 
08:45:00-1.00 °C1027.30 hPa92.00 %-2.30 °C 
08:30:00-2.40 °C1027.20 hPa91.00 %-3.80 °C 
08:15:00-2.70 °C1027.00 hPa91.00 %-4.10 °C 
08:00:00-2.80 °C1027.30 hPa91.00 %-4.20 °C 
07:45:00-3.00 °C1027.10 hPa91.00 %-4.40 °C 
07:30:00-3.10 °C1027.30 hPa91.00 %-4.50 °C 
07:15:00-3.20 °C1027.10 hPa91.00 %-4.60 °C 
07:00:00-3.10 °C1027.10 hPa90.00 %-4.70 °C 
06:45:00-3.00 °C1026.90 hPa90.00 %-4.60 °C 
06:30:00-2.70 °C1027.30 hPa90.00 %-4.30 °C 
06:15:00-2.40 °C1027.30 hPa91.00 %-3.80 °C 
06:00:00-2.10 °C1027.40 hPa91.00 %-3.50 °C 
05:45:00-2.00 °C1027.40 hPa91.00 %-3.40 °C 
05:30:00-1.90 °C1027.50 hPa90.00 %-3.50 °C 
05:15:00-2.10 °C1027.40 hPa90.00 %-3.70 °C 
05:00:00-2.20 °C1027.40 hPa90.00 %-3.80 °C 
04:45:00-2.40 °C1027.50 hPa90.00 %-4.00 °C 
04:30:00-2.50 °C1027.70 hPa90.00 %-4.10 °C 
04:15:00-2.40 °C1027.70 hPa90.00 %-4.00 °C 
04:00:00-2.20 °C1027.70 hPa90.00 %-3.80 °C 
03:45:00-2.40 °C1027.70 hPa89.00 %-4.10 °C 
03:30:00-2.20 °C1027.90 hPa89.00 %-4.00 °C 
03:15:00-2.10 °C1028.20 hPa89.00 %-3.90 °C 
03:00:00-1.90 °C1028.10 hPa89.00 %-3.70 °C 
02:45:00-1.90 °C1028.40 hPa89.00 %-3.70 °C 
02:30:00-1.60 °C1028.50 hPa89.00 %-3.40 °C 
02:15:00-1.20 °C1028.40 hPa89.00 %-3.00 °C 
02:00:00-1.20 °C1028.20 hPa89.00 %-3.00 °C 
01:45:00-1.10 °C1028.40 hPa88.00 %-3.00 °C 
01:30:00-0.60 °C1028.50 hPa88.00 %-2.50 °C 
01:15:00-0.20 °C1028.60 hPa88.00 %-2.10 °C 
01:00:00-0.10 °C1028.70 hPa88.00 %-2.00 °C 
00:45:000.10 °C1028.90 hPa88.00 %-1.60 °C 
00:30:000.20 °C1029.20 hPa88.00 %-1.50 °C 
00:15:000.50 °C1029.20 hPa87.00 %-1.40 °C 
00:00:000.90 °C1029.40 hPa87.00 %-1.00 °C 

Permanenter Link zu dieser Seite: Wetter im Erzgebirge am 01.10.2015
Performance-Info: Die Erstellung der Seite / Statistik(en) / Tabelle(n) erforderte 5 Datenbankserver-Abfrage(n) und dauerte 123 Millisekunden. (Dieser Messwert ist von der Gesamt-Auslastung des Servers abhängig.)
Erzgebirge - Wetter | Erzgebirge - Wetter (Mobilgeräte) | Komplette Klimadatenbank